Columbus Municipal Airport
KOLU : rendu visible

Aérodrome :











RETROUVEZ-NOUS SUR...

 
LOGIN :

S'inscrire | Disclaimer

   EN    FR    IT 

 









Légende :    VFR   VFR Marginal   IFR   IFR Intensif   IFR Très Intensif
Visi : 
Plafond : 
>= 8 km
>= 3000ft
5 à 8 km
1000 à 3000 ft
1500m à 5 km
500 à 1000 ft
800 à 1500m
200 à 500 ft
< 800m
< 200 ft
Symboles :   Orages  Brouillard  Fortes neiges  Fortes précipitations  Vent > 20 kt







- Altitude de l'aérodrome : 1447 ft


KOLU - Columbus Municipal

DERNIER METAR :
  • 191456Z AUTO 31017G26KT 10SM BKN025 OVC031 12/07 A2980 RMK AO2 PK WND 31030/1421 SLP093 T01170067 51017

METARs EXPIRÉS :
  • 191356Z AUTO 30016G24KT 10SM BKN020 BKN025 OVC047 11/07 A2979 RMK AO2 PK WND 32026/1315 SLP089 T01110067
  • 191256Z AUTO 31020G26KT 9SM BKN022 BKN036 OVC042 11/07 A2977 RMK AO2 PK WND 31026/1256 SLP081 T01060067
  • 191238Z AUTO 31017KT 10SM BKN022 OVC040 11/07 A2977 RMK AO2

TAF N/A
FIR KZMP / Amérique du Nord



MET'MAP, la Météo Aéronautique d'un coup d'oeil ! - Copyright ORBIFLY Décembre 2007 - Disclaimer

ORBIFLY MET'MAP TEAM :

Programmation & Développement : Alexandra Zaïnal
Conception & Développement : Baudouin d'Aumeries
Co-Programmation & Développement : Marc-Olivier Méhu
Soutien technique & logistique : Manuel Goepfert

Contact : metmap@orbifly.com




SOURCES & CREDITS :

   NOAA       Earth
Advisory